Time,TemperatureF,DewpointF,PressureIn,WindDirection,WindDirectionDegrees,WindSpeedMPH,WindSpeedGustMPH,Humidity,HourlyPrecipIn,Conditions,Clouds,dailyrainin,SolarRadiationWatts/m^2,SoftwareType,DateUTC
2013-04-30 00:00:00,72.0,39.7,30.03,South,187,5.0,0.0,31,0.00,,,0.00,1,WeatherHawk,2013-04-30 05:00:00,
2013-04-30 00:05:00,72.0,39.7,30.04,SE,137,4.0,-999.0,31,0.00,,,0.00,1,WeatherHawk,2013-04-30 05:05:00,
2013-04-30 00:10:00,72.2,39.0,30.04,SSW,211,10.0,0.0,30,0.00,,,0.00,0,WeatherHawk,2013-04-30 05:10:00,
2013-04-30 00:15:00,72.0,38.9,30.04,SSW,193,10.0,-999.0,30,0.00,,,0.00,0,WeatherHawk,2013-04-30 05:15:00,
2013-04-30 00:20:00,71.9,39.6,30.04,South,189,4.0,0.0,31,0.00,,,0.00,0,WeatherHawk,2013-04-30 05:20:00,
2013-04-30 00:25:00,71.5,39.3,30.04,SSE,163,7.0,0.0,31,0.00,,,0.00,1,WeatherHawk,2013-04-30 05:25:00,
2013-04-30 00:30:00,71.1,38.1,30.03,SSE,158,4.0,0.0,30,0.00,,,0.00,1,WeatherHawk,2013-04-30 05:30:00,
2013-04-30 00:35:00,70.8,39.5,30.04,South,171,3.0,0.0,32,0.00,,,0.00,0,WeatherHawk,2013-04-30 05:35:00,
2013-04-30 00:40:00,70.3,39.0,30.04,SSE,161,1.0,0.0,32,0.00,,,0.00,1,WeatherHawk,2013-04-30 05:40:00,
2013-04-30 00:45:00,70.5,40.0,30.04,SSE,168,7.0,0.0,33,0.00,,,0.00,1,WeatherHawk,2013-04-30 05:45:00,
2013-04-30 00:50:00,70.4,39.9,30.04,SE,144,2.0,-999.0,33,0.00,,,0.00,1,WeatherHawk,2013-04-30 05:50:00,
2013-04-30 00:55:00,70.1,40.4,30.04,South,183,4.0,0.0,34,0.00,,,0.00,1,WeatherHawk,2013-04-30 05:55:00,
2013-04-30 01:00:00,69.9,40.2,30.04,SSE,157,1.0,0.0,34,0.00,,,0.00,0,WeatherHawk,2013-04-30 06:00:00,
2013-04-30 01:05:00,69.8,40.9,30.04,SSE,154,3.0,0.0,35,0.00,,,0.00,0,WeatherHawk,2013-04-30 06:05:00,
2013-04-30 01:10:00,69.5,40.7,30.04,SSE,151,6.0,0.0,35,0.00,,,0.00,0,WeatherHawk,2013-04-30 06:10:00,
2013-04-30 01:15:00,69.3,41.2,30.04,SSE,148,4.0,0.0,36,0.00,,,0.00,0,WeatherHawk,2013-04-30 06:15:00,
2013-04-30 01:20:00,68.9,40.8,30.04,SSE,160,5.0,0.0,36,0.00,,,0.00,1,WeatherHawk,2013-04-30 06:20:00,
2013-04-30 01:25:00,69.0,42.3,30.04,SE,130,4.0,0.0,38,0.00,,,0.00,1,WeatherHawk,2013-04-30 06:25:00,
2013-04-30 01:30:00,68.6,42.0,30.04,SE,128,5.0,0.0,38,0.00,,,0.00,0,WeatherHawk,2013-04-30 06:30:00,
2013-04-30 01:36:00,68.4,42.5,30.04,SE,127,5.0,0.0,39,0.00,,,0.00,0,WeatherHawk,2013-04-30 06:36:00,
2013-04-30 01:41:00,68.2,42.2,30.04,ESE,109,1.0,0.0,39,0.00,,,0.00,1,WeatherHawk,2013-04-30 06:41:00,
2013-04-30 01:46:00,67.7,42.5,30.04,ESE,122,0.0,0.0,40,0.00,,,0.00,1,WeatherHawk,2013-04-30 06:46:00,
2013-04-30 01:51:00,67.8,42.6,30.04,ENE,67,3.0,0.0,40,0.00,,,0.00,0,WeatherHawk,2013-04-30 06:51:00,
2013-04-30 01:56:00,68.0,42.8,30.03,SE,130,5.0,0.0,40,0.00,,,0.00,0,WeatherHawk,2013-04-30 06:56:00,
2013-04-30 02:01:00,67.5,42.9,30.04,SE,141,2.0,0.0,41,0.00,,,0.00,1,WeatherHawk,2013-04-30 07:01:00,
2013-04-30 02:06:00,67.0,43.7,30.04,ESE,120,0.0,0.0,43,0.00,,,0.00,1,WeatherHawk,2013-04-30 07:06:00,
2013-04-30 02:12:00,66.5,43.9,30.03,SE,142,3.0,0.0,44,0.00,,,0.00,0,WeatherHawk,2013-04-30 07:12:00,
2013-04-30 02:17:00,65.8,45.0,30.04,East,93,0.0,0.0,47,0.00,,,0.00,0,WeatherHawk,2013-04-30 07:17:00,
2013-04-30 02:22:00,65.8,46.1,30.04,East,98,4.0,0.0,49,0.00,,,0.00,0,WeatherHawk,2013-04-30 07:22:00,
2013-04-30 02:27:00,65.4,46.3,30.03,ESE,111,1.0,0.0,50,0.00,,,0.00,1,WeatherHawk,2013-04-30 07:27:00,
2013-04-30 02:32:00,65.3,47.2,30.04,East,95,0.0,0.0,52,0.00,,,0.00,0,WeatherHawk,2013-04-30 07:32:00,
2013-04-30 02:37:00,64.6,47.1,30.04,ESE,110,0.0,0.0,53,0.00,,,0.00,0,WeatherHawk,2013-04-30 07:37:00,
2013-04-30 02:43:00,65.9,48.8,30.03,SSE,166,3.0,0.0,54,0.00,,,0.00,0,WeatherHawk,2013-04-30 07:43:00,
2013-04-30 02:48:00,64.2,47.2,30.04,ESE,108,0.0,0.0,54,0.00,,,0.00,0,WeatherHawk,2013-04-30 07:48:00,
2013-04-30 02:53:00,64.7,47.7,30.05,East,82,1.0,0.0,54,0.00,,,0.00,0,WeatherHawk,2013-04-30 07:53:00,
2013-04-30 02:58:00,64.7,48.1,30.04,ESE,117,2.0,0.0,55,0.00,,,0.00,1,WeatherHawk,2013-04-30 07:58:00,
2013-04-30 03:04:00,64.3,48.3,30.04,ESE,111,1.0,0.0,56,0.00,,,0.00,0,WeatherHawk,2013-04-30 08:04:00,
2013-04-30 03:09:00,64.1,48.5,30.03,SE,143,1.0,0.0,57,0.00,,,0.00,1,WeatherHawk,2013-04-30 08:09:00,
2013-04-30 03:15:00,63.4,48.8,30.05,East,94,1.0,0.0,59,0.00,,,0.00,0,WeatherHawk,2013-04-30 08:15:00,
2013-04-30 03:20:00,63.3,49.2,30.04,East,95,0.0,-999.0,60,0.00,,,0.00,0,WeatherHawk,2013-04-30 08:20:00,
2013-04-30 03:25:00,63.0,48.9,30.04,South,173,0.0,0.0,60,0.00,,,0.00,2,WeatherHawk,2013-04-30 08:25:00,
2013-04-30 03:30:00,63.1,49.5,30.04,ESE,107,1.0,0.0,61,0.00,,,0.00,0,WeatherHawk,2013-04-30 08:30:00,
2013-04-30 03:35:00,63.1,49.4,30.04,South,190,1.0,0.0,61,0.00,,,0.00,1,WeatherHawk,2013-04-30 08:35:00,
2013-04-30 03:40:00,62.5,48.9,30.03,SE,127,0.0,0.0,61,0.00,,,0.00,1,WeatherHawk,2013-04-30 08:40:00,
2013-04-30 03:45:00,62.9,49.7,30.04,East,84,1.0,-999.0,62,0.00,,,0.00,1,WeatherHawk,2013-04-30 08:45:00,
2013-04-30 03:50:00,63.0,49.7,30.04,ESE,112,1.0,0.0,62,0.00,,,0.00,0,WeatherHawk,2013-04-30 08:50:00,
2013-04-30 03:55:00,62.8,50.4,30.04,East,99,0.0,0.0,64,0.00,,,0.00,1,WeatherHawk,2013-04-30 08:55:00,
2013-04-30 04:00:00,62.7,50.8,30.05,ESE,109,0.0,0.0,65,0.00,,,0.00,1,WeatherHawk,2013-04-30 09:00:00,
2013-04-30 04:05:00,62.9,50.5,30.04,East,101,3.0,0.0,64,0.00,,,0.00,0,WeatherHawk,2013-04-30 09:05:00,
2013-04-30 04:10:00,62.9,50.5,30.04,East,96,3.0,-999.0,64,0.00,,,0.00,1,WeatherHawk,2013-04-30 09:10:00,
2013-04-30 04:15:00,62.8,50.8,30.04,ESE,121,2.0,0.0,65,0.00,,,0.00,1,WeatherHawk,2013-04-30 09:15:00,
2013-04-30 04:20:00,62.3,50.3,30.04,East,101,0.0,-999.0,65,0.00,,,0.00,0,WeatherHawk,2013-04-30 09:20:00,
2013-04-30 04:25:00,62.8,51.7,30.03,ESE,123,4.0,0.0,67,0.00,,,0.00,1,WeatherHawk,2013-04-30 09:25:00,
2013-04-30 04:30:00,62.7,51.2,30.03,SE,137,2.0,0.0,66,0.00,,,0.00,0,WeatherHawk,2013-04-30 09:30:00,
2013-04-30 04:35:00,62.4,50.1,30.04,ESE,118,0.0,-999.0,64,0.00,,,0.00,1,WeatherHawk,2013-04-30 09:35:00,
2013-04-30 04:40:00,63.0,51.5,30.03,SE,124,4.0,0.0,66,0.00,,,0.00,0,WeatherHawk,2013-04-30 09:40:00,
2013-04-30 04:45:00,62.6,50.2,30.03,ESE,107,0.0,0.0,64,0.00,,,0.00,1,WeatherHawk,2013-04-30 09:45:00,
2013-04-30 04:50:00,62.9,51.0,30.03,East,100,4.0,0.0,65,0.00,,,0.00,1,WeatherHawk,2013-04-30 09:50:00,
2013-04-30 04:55:00,62.8,51.3,30.03,SE,137,3.0,0.0,66,0.00,,,0.00,1,WeatherHawk,2013-04-30 09:55:00,
2013-04-30 05:00:00,61.5,50.0,30.04,ESE,112,0.0,0.0,66,0.00,,,0.00,1,WeatherHawk,2013-04-30 10:00:00,
2013-04-30 05:05:00,61.4,51.2,30.03,ESE,112,0.0,0.0,69,0.00,,,0.00,1,WeatherHawk,2013-04-30 10:05:00,
2013-04-30 05:10:00,61.3,51.4,30.04,ESE,112,0.0,0.0,70,0.00,,,0.00,1,WeatherHawk,2013-04-30 10:10:00,
2013-04-30 05:15:00,61.5,53.1,30.04,ESE,112,0.0,0.0,74,0.00,,,0.00,0,WeatherHawk,2013-04-30 10:15:00,
2013-04-30 05:20:00,61.3,53.3,30.04,ESE,112,0.0,-999.0,75,0.00,,,0.00,0,WeatherHawk,2013-04-30 10:20:00,
2013-04-30 05:25:00,60.5,52.5,30.03,ESE,112,0.0,0.0,75,0.00,,,0.00,1,WeatherHawk,2013-04-30 10:25:00,
2013-04-30 05:30:00,59.9,52.3,30.04,ESE,112,0.0,-999.0,76,0.00,,,0.00,0,WeatherHawk,2013-04-30 10:30:00,
2013-04-30 05:35:00,60.5,54.6,30.04,ESE,112,0.0,0.0,81,0.00,,,0.00,0,WeatherHawk,2013-04-30 10:35:00,
2013-04-30 05:40:00,60.3,54.4,30.04,ESE,112,0.0,-999.0,81,0.00,,,0.00,1,WeatherHawk,2013-04-30 10:40:00,
2013-04-30 05:45:00,60.0,54.5,30.05,NE,45,0.0,0.0,82,0.00,,,0.00,0,WeatherHawk,2013-04-30 10:45:00,
2013-04-30 05:50:00,59.5,54.0,30.05,NE,45,0.0,0.0,82,0.00,,,0.00,0,WeatherHawk,2013-04-30 10:50:00,
2013-04-30 05:55:00,60.0,55.2,30.05,ENE,74,0.0,0.0,84,0.00,,,0.00,0,WeatherHawk,2013-04-30 10:55:00,
2013-04-30 06:00:00,61.1,56.3,30.05,East,99,2.0,0.0,84,0.00,,,0.00,1,WeatherHawk,2013-04-30 11:00:00,
2013-04-30 06:05:00,60.6,55.1,30.04,ESE,117,1.0,-999.0,82,0.00,,,0.00,0,WeatherHawk,2013-04-30 11:05:00,
2013-04-30 06:10:00,60.4,54.5,30.05,ESE,107,1.0,0.0,81,0.00,,,0.00,1,WeatherHawk,2013-04-30 11:10:00,
2013-04-30 06:15:00,60.7,54.5,30.05,SSE,165,0.0,0.0,80,0.00,,,0.00,0,WeatherHawk,2013-04-30 11:15:00,
2013-04-30 06:20:00,60.6,54.4,30.05,ESE,117,1.0,0.0,80,0.00,,,0.00,1,WeatherHawk,2013-04-30 11:20:00,
2013-04-30 06:25:00,60.6,54.1,30.05,ESE,117,1.0,0.0,79,0.00,,,0.00,1,WeatherHawk,2013-04-30 11:25:00,
2013-04-30 06:30:00,60.6,54.4,30.06,SE,132,0.0,-999.0,80,0.00,,,0.00,1,WeatherHawk,2013-04-30 11:30:00,
2013-04-30 06:35:00,60.8,54.9,30.05,ESE,116,0.0,0.0,81,0.00,,,0.00,2,WeatherHawk,2013-04-30 11:35:00,
2013-04-30 06:40:00,60.5,55.0,30.06,ENE,76,0.0,-999.0,82,0.00,,,0.00,5,WeatherHawk,2013-04-30 11:40:00,
2013-04-30 06:45:00,60.3,54.4,30.06,East,92,0.0,0.0,81,0.00,,,0.00,8,WeatherHawk,2013-04-30 11:45:00,
2013-04-30 06:50:00,60.9,55.7,30.07,ESE,114,1.0,-999.0,83,0.00,,,0.00,13,WeatherHawk,2013-04-30 11:50:00,
2013-04-30 06:55:00,61.3,55.8,30.07,ESE,111,1.0,0.0,82,0.00,,,0.00,21,WeatherHawk,2013-04-30 11:55:00,
2013-04-30 07:00:00,61.5,55.3,30.07,East,101,1.0,0.0,80,0.00,,,0.00,31,WeatherHawk,2013-04-30 12:00:00,
2013-04-30 07:05:00,61.6,54.3,30.06,ENE,70,0.0,0.0,77,0.00,,,0.00,43,WeatherHawk,2013-04-30 12:05:00,
2013-04-30 07:10:00,62.1,53.7,30.06,ESE,106,0.0,0.0,74,0.00,,,0.00,52,WeatherHawk,2013-04-30 12:10:00,
2013-04-30 07:15:00,62.1,52.6,30.07,East,96,2.0,0.0,71,0.00,,,0.00,63,WeatherHawk,2013-04-30 12:15:00,
2013-04-30 07:20:00,62.4,52.1,30.07,ESE,107,2.0,0.0,69,0.00,,,0.00,75,WeatherHawk,2013-04-30 12:20:00,
2013-04-30 07:25:00,63.6,52.8,30.06,ESE,122,0.0,0.0,68,0.00,,,0.00,86,WeatherHawk,2013-04-30 12:25:00,
2013-04-30 07:30:00,63.2,50.4,30.06,ESE,106,2.0,-999.0,63,0.00,,,0.00,99,WeatherHawk,2013-04-30 12:30:00,
2013-04-30 07:35:00,63.5,51.5,30.06,SE,131,2.0,0.0,65,0.00,,,0.00,113,WeatherHawk,2013-04-30 12:35:00,
2013-04-30 07:40:00,64.1,51.6,30.06,ESE,107,1.0,0.0,64,0.00,,,0.00,127,WeatherHawk,2013-04-30 12:40:00,
2013-04-30 07:45:00,64.4,50.6,30.06,SSE,159,4.0,0.0,61,0.00,,,0.00,137,WeatherHawk,2013-04-30 12:45:00,
2013-04-30 07:50:00,65.3,50.6,30.06,ESE,121,0.0,-999.0,59,0.00,,,0.00,156,WeatherHawk,2013-04-30 12:50:00,
2013-04-30 07:55:00,66.4,51.6,30.05,West,275,0.0,0.0,59,0.00,,,0.00,167,WeatherHawk,2013-04-30 12:55:00,
2013-04-30 08:00:00,63.8,48.7,30.06,SE,143,8.0,-999.0,58,0.00,,,0.00,105,WeatherHawk,2013-04-30 13:00:00,
2013-04-30 08:05:00,64.5,49.3,30.06,SSE,158,4.0,0.0,58,0.00,,,0.00,89,WeatherHawk,2013-04-30 13:05:00,
2013-04-30 08:10:00,64.3,50.6,30.06,South,176,5.0,0.0,61,0.00,,,0.00,123,WeatherHawk,2013-04-30 13:10:00,
2013-04-30 08:15:00,64.6,51.7,30.06,South,174,5.0,0.0,63,0.00,,,0.00,133,WeatherHawk,2013-04-30 13:15:00,
2013-04-30 08:20:00,64.6,52.1,30.05,SSE,162,4.0,-999.0,64,0.00,,,0.00,118,WeatherHawk,2013-04-30 13:20:00,
2013-04-30 08:25:00,64.7,52.2,30.05,SE,135,6.0,-999.0,64,0.00,,,0.00,151,WeatherHawk,2013-04-30 13:25:00,
2013-04-30 08:30:00,64.5,52.5,30.05,South,188,7.0,0.0,65,0.00,,,0.00,131,WeatherHawk,2013-04-30 13:30:00,
2013-04-30 08:35:00,64.6,53.4,30.06,SSW,207,6.0,0.0,67,0.00,,,0.00,171,WeatherHawk,2013-04-30 13:35:00,
2013-04-30 08:40:00,64.1,52.9,30.06,South,181,6.0,0.0,67,0.00,,,0.00,129,WeatherHawk,2013-04-30 13:40:00,
2013-04-30 08:45:00,64.5,53.3,30.05,SE,130,6.0,0.0,67,0.00,,,0.00,144,WeatherHawk,2013-04-30 13:45:00,
2013-04-30 08:50:00,64.6,53.0,30.06,SSE,164,7.0,0.0,66,0.00,,,0.00,170,WeatherHawk,2013-04-30 13:50:00,
2013-04-30 08:55:00,65.1,53.0,30.06,South,174,3.0,0.0,65,0.00,,,0.00,216,WeatherHawk,2013-04-30 13:55:00,
2013-04-30 09:00:00,65.5,52.6,30.06,ESE,108,5.0,-999.0,63,0.00,,,0.00,161,WeatherHawk,2013-04-30 14:00:00,
2013-04-30 09:05:00,65.6,52.7,30.05,South,184,4.0,0.0,63,0.00,,,0.00,247,WeatherHawk,2013-04-30 14:05:00,
2013-04-30 09:10:00,65.5,51.7,30.04,South,173,5.0,0.0,61,0.00,,,0.00,218,WeatherHawk,2013-04-30 14:10:00,
2013-04-30 09:15:00,66.3,52.0,30.05,South,174,5.0,0.0,60,0.00,,,0.00,230,WeatherHawk,2013-04-30 14:15:00,
2013-04-30 09:21:00,66.5,52.2,30.05,South,176,5.0,0.0,60,0.00,,,0.00,258,WeatherHawk,2013-04-30 14:21:00,
2013-04-30 09:27:00,67.5,50.3,30.05,ESE,113,0.0,0.0,54,0.00,,,0.00,237,WeatherHawk,2013-04-30 14:27:00,
2013-04-30 09:32:00,68.0,50.2,30.05,SE,145,3.0,0.0,53,0.00,,,0.00,287,WeatherHawk,2013-04-30 14:32:00,
2013-04-30 09:38:00,68.7,50.3,30.05,SSE,155,2.0,0.0,52,0.00,,,0.00,325,WeatherHawk,2013-04-30 14:38:00,
2013-04-30 09:43:00,68.0,48.7,30.04,SE,140,3.0,0.0,50,0.00,,,0.00,249,WeatherHawk,2013-04-30 14:43:00,
2013-04-30 09:48:00,66.2,46.5,30.05,SE,137,10.0,0.0,49,0.00,,,0.00,275,WeatherHawk,2013-04-30 14:48:00,
2013-04-30 09:53:00,67.9,48.5,30.04,ESE,113,4.0,0.0,50,0.00,,,0.00,285,WeatherHawk,2013-04-30 14:53:00,
2013-04-30 09:59:00,69.0,48.5,30.04,South,174,4.0,0.0,48,0.00,,,0.00,502,WeatherHawk,2013-04-30 14:59:00,
2013-04-30 10:04:00,69.6,46.1,30.05,ENE,64,3.0,0.0,43,0.00,,,0.00,427,WeatherHawk,2013-04-30 15:04:00,
2013-04-30 10:09:00,69.2,46.3,30.03,ESE,117,4.0,0.0,44,0.00,,,0.00,332,WeatherHawk,2013-04-30 15:09:00,
2013-04-30 10:14:00,69.3,46.4,30.04,SSE,152,4.0,0.0,44,0.00,,,0.00,771,WeatherHawk,2013-04-30 15:14:00,
2013-04-30 10:19:00,70.0,44.5,30.04,South,176,5.0,0.0,40,0.00,,,0.00,282,WeatherHawk,2013-04-30 15:19:00,
2013-04-30 10:24:00,69.8,45.6,30.04,ESE,117,3.0,0.0,42,0.00,,,0.00,292,WeatherHawk,2013-04-30 15:24:00,
2013-04-30 10:30:00,70.3,44.1,30.03,SE,125,8.0,0.0,39,0.00,,,0.00,338,WeatherHawk,2013-04-30 15:30:00,
2013-04-30 10:35:00,71.4,45.1,30.04,SE,138,1.0,0.0,39,0.00,,,0.00,427,WeatherHawk,2013-04-30 15:35:00,
2013-04-30 10:40:00,71.4,42.3,30.03,SSE,147,2.0,0.0,35,0.00,,,0.00,928,WeatherHawk,2013-04-30 15:40:00,
2013-04-30 10:45:00,71.4,42.3,30.03,SSE,163,6.0,0.0,35,0.00,,,0.00,931,WeatherHawk,2013-04-30 15:45:00,
2013-04-30 10:50:00,71.7,40.3,30.02,ESE,108,8.0,0.0,32,0.00,,,0.00,846,WeatherHawk,2013-04-30 15:50:00,
2013-04-30 10:55:00,74.1,40.7,30.03,ESE,123,5.0,0.0,30,0.00,,,0.00,787,WeatherHawk,2013-04-30 15:55:00,
2013-04-30 11:00:00,72.2,39.0,30.02,South,178,8.0,-999.0,30,0.00,,,0.00,805,WeatherHawk,2013-04-30 16:00:00,
2013-04-30 11:05:00,72.1,37.2,30.01,SSE,147,9.0,0.0,28,0.00,,,0.00,874,WeatherHawk,2013-04-30 16:05:00,
2013-04-30 11:10:00,71.4,38.4,30.02,SE,128,8.0,-999.0,30,0.00,,,0.00,877,WeatherHawk,2013-04-30 16:10:00,
2013-04-30 11:15:00,71.9,39.6,30.02,SSE,166,8.0,0.0,31,0.00,,,0.00,905,WeatherHawk,2013-04-30 16:15:00,
2013-04-30 11:20:00,71.2,37.3,30.03,ESE,118,7.0,0.0,29,0.00,,,0.00,321,WeatherHawk,2013-04-30 16:20:00,
2013-04-30 11:25:00,71.4,38.3,30.02,ESE,107,11.0,0.0,30,0.00,,,0.00,400,WeatherHawk,2013-04-30 16:25:00,
2013-04-30 11:30:00,71.3,39.9,30.02,SE,126,9.0,0.0,32,0.00,,,0.00,990,WeatherHawk,2013-04-30 16:30:00,
2013-04-30 11:35:00,72.8,42.0,30.03,SE,142,11.0,0.0,33,0.00,,,0.00,1087,WeatherHawk,2013-04-30 16:35:00,
2013-04-30 11:40:00,75.6,41.9,30.03,ESE,104,3.0,0.0,30,0.00,,,0.00,309,WeatherHawk,2013-04-30 16:40:00,
2013-04-30 11:45:00,71.5,40.9,30.02,SE,136,12.0,0.0,33,0.00,,,0.00,502,WeatherHawk,2013-04-30 16:45:00,
2013-04-30 11:50:00,70.9,41.1,30.03,SE,144,11.0,0.0,34,0.00,,,0.00,998,WeatherHawk,2013-04-30 16:50:00,
2013-04-30 11:55:00,71.3,42.2,30.04,ESE,110,11.0,-999.0,35,0.00,,,0.00,432,WeatherHawk,2013-04-30 16:55:00,
2013-04-30 12:00:00,70.9,44.7,30.05,SE,124,10.0,0.0,39,0.00,,,0.00,332,WeatherHawk,2013-04-30 17:00:00,
2013-04-30 12:05:00,70.6,46.4,30.05,ESE,120,12.0,-999.0,42,0.00,,,0.00,303,WeatherHawk,2013-04-30 17:05:00,
2013-04-30 12:10:00,70.3,47.4,30.05,SSE,159,11.0,0.0,44,0.00,,,0.00,386,WeatherHawk,2013-04-30 17:10:00,
2013-04-30 12:15:00,70.4,45.6,30.04,SE,138,11.0,0.0,41,0.00,,,0.00,492,WeatherHawk,2013-04-30 17:15:00,
2013-04-30 12:20:00,70.3,46.1,30.04,SSE,157,12.0,0.0,42,0.00,,,0.00,387,WeatherHawk,2013-04-30 17:20:00,
2013-04-30 12:25:00,71.9,45.6,30.04,SE,130,6.0,0.0,39,0.00,,,0.00,357,WeatherHawk,2013-04-30 17:25:00,
2013-04-30 12:30:00,72.5,45.4,30.05,SE,139,2.0,0.0,38,0.00,,,0.00,335,WeatherHawk,2013-04-30 17:30:00,
2013-04-30 12:35:00,71.4,45.1,30.04,SSE,157,5.0,0.0,39,0.00,,,0.00,294,WeatherHawk,2013-04-30 17:35:00,
2013-04-30 12:40:00,71.8,44.8,30.04,SE,135,6.0,0.0,38,0.00,,,0.00,473,WeatherHawk,2013-04-30 17:40:00,
2013-04-30 12:45:00,73.0,45.9,30.03,NNW,338,5.0,0.0,38,0.00,,,0.00,502,WeatherHawk,2013-04-30 17:45:00,
2013-04-30 12:50:00,72.4,44.0,30.04,SE,133,6.0,0.0,36,0.00,,,0.00,447,WeatherHawk,2013-04-30 17:50:00,
2013-04-30 12:55:00,74.0,41.4,30.04,ESE,121,8.0,0.0,31,0.00,,,0.00,1258,WeatherHawk,2013-04-30 17:55:00,
2013-04-30 13:00:00,73.0,40.6,30.03,ESE,117,11.0,0.0,31,0.00,,,0.00,1245,WeatherHawk,2013-04-30 18:00:00,
2013-04-30 13:05:00,75.2,40.8,30.01,SSE,148,8.0,-999.0,29,0.00,,,0.00,768,WeatherHawk,2013-04-30 18:05:00,
2013-04-30 13:10:00,73.6,38.4,30.01,SSE,148,6.0,0.0,28,0.00,,,0.00,355,WeatherHawk,2013-04-30 18:10:00,
2013-04-30 13:15:00,76.8,40.2,30.02,South,178,4.0,-999.0,27,0.00,,,0.00,1001,WeatherHawk,2013-04-30 18:15:00,
2013-04-30 13:20:00,74.6,37.4,30.01,SSE,154,7.0,0.0,26,0.00,,,0.00,350,WeatherHawk,2013-04-30 18:20:00,
2013-04-30 13:25:00,75.4,38.1,30.01,SSE,152,12.0,0.0,26,0.00,,,0.00,1102,WeatherHawk,2013-04-30 18:25:00,
2013-04-30 13:30:00,76.5,40.0,30.00,East,99,6.0,-999.0,27,0.00,,,0.00,1125,WeatherHawk,2013-04-30 18:30:00,
2013-04-30 13:35:00,75.1,38.8,30.00,SSE,149,9.0,-999.0,27,0.00,,,0.00,1070,WeatherHawk,2013-04-30 18:35:00,
2013-04-30 13:40:00,75.1,36.9,30.01,SE,124,8.0,-999.0,25,0.00,,,0.00,382,WeatherHawk,2013-04-30 18:40:00,
2013-04-30 13:45:00,76.8,40.3,30.01,SE,138,5.0,0.0,27,0.00,,,0.00,406,WeatherHawk,2013-04-30 18:45:00,
2013-04-30 13:50:00,74.8,37.6,29.99,SE,142,9.0,0.0,26,0.00,,,0.00,385,WeatherHawk,2013-04-30 18:50:00,
2013-04-30 13:55:00,76.9,38.3,29.99,SE,141,10.0,0.0,25,0.00,,,0.00,1153,WeatherHawk,2013-04-30 18:55:00,
2013-04-30 14:00:00,77.2,37.6,30.00,SSE,153,11.0,-999.0,24,0.00,,,0.00,1031,WeatherHawk,2013-04-30 19:00:00,
2013-04-30 14:05:00,79.2,38.1,29.98,East,82,5.0,0.0,23,0.00,,,0.00,1129,WeatherHawk,2013-04-30 19:05:00,
2013-04-30 14:10:00,78.4,37.5,30.00,SE,130,6.0,0.0,23,0.00,,,0.00,320,WeatherHawk,2013-04-30 19:10:00,
2013-04-30 14:15:00,79.1,37.0,29.99,SE,130,8.0,-999.0,22,0.00,,,0.00,1106,WeatherHawk,2013-04-30 19:15:00,
2013-04-30 14:20:00,78.1,36.1,29.97,SE,134,11.0,0.0,22,0.00,,,0.00,356,WeatherHawk,2013-04-30 19:20:00,
2013-04-30 14:25:00,79.5,38.4,29.97,SSW,198,6.0,0.0,23,0.00,,,0.00,336,WeatherHawk,2013-04-30 19:25:00,
2013-04-30 14:30:00,79.1,34.6,29.98,ENE,77,7.0,0.0,20,0.00,,,0.00,1102,WeatherHawk,2013-04-30 19:30:00,
2013-04-30 14:35:00,79.4,38.4,29.98,NE,39,5.0,0.0,23,0.00,,,0.00,1133,WeatherHawk,2013-04-30 19:35:00,
2013-04-30 14:40:00,77.4,34.4,29.97,SE,127,6.0,0.0,21,0.00,,,0.00,380,WeatherHawk,2013-04-30 19:40:00,
2013-04-30 14:45:00,77.9,35.9,29.96,ESE,119,10.0,0.0,22,0.00,,,0.00,1002,WeatherHawk,2013-04-30 19:45:00,
2013-04-30 14:50:00,79.7,35.1,29.97,ENE,61,5.0,0.0,20,0.00,,,0.00,927,WeatherHawk,2013-04-30 19:50:00,
2013-04-30 14:55:00,81.4,36.5,29.97,NW,310,1.0,-999.0,20,0.00,,,0.00,878,WeatherHawk,2013-04-30 19:55:00,
2013-04-30 15:00:00,78.2,33.9,29.95,ESE,122,14.0,0.0,20,0.00,,,0.00,946,WeatherHawk,2013-04-30 20:00:00,
2013-04-30 15:05:00,81.3,37.6,29.94,NNW,346,7.0,0.0,21,0.00,,,0.00,909,WeatherHawk,2013-04-30 20:05:00,
2013-04-30 15:10:00,79.3,33.5,29.96,ESE,106,10.0,0.0,19,0.00,,,0.00,860,WeatherHawk,2013-04-30 20:10:00,
2013-04-30 15:15:00,79.3,30.7,29.94,SE,129,6.0,-999.0,17,0.00,,,0.00,852,WeatherHawk,2013-04-30 20:15:00,
2013-04-30 15:20:00,81.0,33.5,29.96,SSE,156,5.0,0.0,18,0.00,,,0.00,880,WeatherHawk,2013-04-30 20:20:00,
2013-04-30 15:25:00,81.4,35.1,29.95,SSE,153,5.0,0.0,19,0.00,,,0.00,870,WeatherHawk,2013-04-30 20:25:00,
2013-04-30 15:30:00,81.3,33.7,29.95,East,85,7.0,0.0,18,0.00,,,0.00,877,WeatherHawk,2013-04-30 20:30:00,
2013-04-30 15:35:00,79.6,31.0,29.95,SSE,147,8.0,-999.0,17,0.00,,,0.00,816,WeatherHawk,2013-04-30 20:35:00,
2013-04-30 15:40:00,81.2,35.0,29.95,SE,145,12.0,0.0,19,0.00,,,0.00,870,WeatherHawk,2013-04-30 20:40:00,
2013-04-30 15:45:00,80.6,34.5,29.95,SE,141,10.0,0.0,19,0.00,,,0.00,586,WeatherHawk,2013-04-30 20:45:00,
2013-04-30 15:50:00,79.8,32.5,29.94,East,86,11.0,0.0,18,0.00,,,0.00,795,WeatherHawk,2013-04-30 20:50:00,
2013-04-30 15:55:00,82.4,34.6,29.95,South,183,4.0,0.0,18,0.00,,,0.00,714,WeatherHawk,2013-04-30 20:55:00,
2013-04-30 16:00:00,79.6,33.7,29.94,South,170,7.0,-999.0,19,0.00,,,0.00,205,WeatherHawk,2013-04-30 21:00:00,
2013-04-30 16:05:00,81.5,33.9,29.94,ESE,119,7.0,0.0,18,0.00,,,0.00,761,WeatherHawk,2013-04-30 21:05:00,
2013-04-30 16:10:00,82.1,32.9,29.93,SSW,210,6.0,-999.0,17,0.00,,,0.00,777,WeatherHawk,2013-04-30 21:10:00,
2013-04-30 16:15:00,80.3,32.9,29.93,ESE,115,6.0,0.0,18,0.00,,,0.00,728,WeatherHawk,2013-04-30 21:15:00,
2013-04-30 16:20:00,83.4,35.4,29.94,ESE,109,2.0,-999.0,18,0.00,,,0.00,731,WeatherHawk,2013-04-30 21:20:00,
2013-04-30 16:25:00,80.0,31.2,29.94,ESE,108,10.0,-999.0,17,0.00,,,0.00,450,WeatherHawk,2013-04-30 21:25:00,
2013-04-30 16:30:00,83.0,35.1,29.92,SE,133,7.0,0.0,18,0.00,,,0.00,695,WeatherHawk,2013-04-30 21:30:00,
2013-04-30 16:35:00,82.1,34.3,29.93,SE,139,4.0,0.0,18,0.00,,,0.00,679,WeatherHawk,2013-04-30 21:35:00,
2013-04-30 16:40:00,81.0,30.6,29.93,ESE,119,9.0,0.0,16,0.00,,,0.00,755,WeatherHawk,2013-04-30 21:40:00,
2013-04-30 16:45:00,82.4,33.2,29.92,South,172,6.0,0.0,17,0.00,,,0.00,686,WeatherHawk,2013-04-30 21:45:00,
2013-04-30 16:50:00,81.3,32.3,29.92,ESE,113,9.0,-999.0,17,0.00,,,0.00,693,WeatherHawk,2013-04-30 21:50:00,
2013-04-30 16:55:00,80.8,31.9,29.93,SE,138,12.0,0.0,17,0.00,,,0.00,624,WeatherHawk,2013-04-30 21:55:00,
2013-04-30 17:00:00,80.4,31.5,29.94,ESE,122,6.0,-999.0,17,0.00,,,0.00,604,WeatherHawk,2013-04-30 22:00:00,
2013-04-30 17:05:00,83.3,33.9,29.93,SW,231,3.0,0.0,17,0.00,,,0.00,586,WeatherHawk,2013-04-30 22:05:00,
2013-04-30 17:10:00,82.1,34.4,29.94,SE,134,5.0,0.0,18,0.00,,,0.00,567,WeatherHawk,2013-04-30 22:10:00,
2013-04-30 17:15:00,80.1,32.8,29.94,East,97,9.0,0.0,18,0.00,,,0.00,543,WeatherHawk,2013-04-30 22:15:00,
2013-04-30 17:20:00,80.8,33.3,29.93,East,89,8.0,0.0,18,0.00,,,0.00,528,WeatherHawk,2013-04-30 22:20:00,
2013-04-30 17:25:00,81.8,35.5,29.91,WSW,254,7.0,0.0,19,0.00,,,0.00,502,WeatherHawk,2013-04-30 22:25:00,
2013-04-30 17:30:00,80.3,33.0,29.92,SE,136,11.0,0.0,18,0.00,,,0.00,506,WeatherHawk,2013-04-30 22:30:00,
2013-04-30 17:35:00,81.3,33.7,29.92,ESE,116,9.0,0.0,18,0.00,,,0.00,482,WeatherHawk,2013-04-30 22:35:00,
2013-04-30 17:40:00,80.6,34.5,29.91,ESE,113,9.0,0.0,19,0.00,,,0.00,460,WeatherHawk,2013-04-30 22:40:00,
2013-04-30 17:46:00,81.1,32.1,29.93,ESE,105,11.0,0.0,17,0.00,,,0.00,450,WeatherHawk,2013-04-30 22:46:00,
2013-04-30 17:52:00,80.6,33.2,29.92,ESE,118,7.0,0.0,18,0.00,,,0.00,432,WeatherHawk,2013-04-30 22:52:00,
2013-04-30 17:58:00,81.3,33.7,29.92,ESE,117,7.0,0.0,18,0.00,,,0.00,411,WeatherHawk,2013-04-30 22:58:00,
2013-04-30 18:04:00,81.3,32.3,29.92,SE,139,8.0,0.0,17,0.00,,,0.00,385,WeatherHawk,2013-04-30 23:04:00,
2013-04-30 18:09:00,80.2,29.9,29.92,ESE,117,8.0,0.0,16,0.00,,,0.00,372,WeatherHawk,2013-04-30 23:09:00,
2013-04-30 18:14:00,81.3,30.8,29.93,ESE,116,7.0,0.0,16,0.00,,,0.00,355,WeatherHawk,2013-04-30 23:14:00,
2013-04-30 18:20:00,80.9,30.5,29.93,SE,136,8.0,0.0,16,0.00,,,0.00,341,WeatherHawk,2013-04-30 23:20:00,
2013-04-30 18:25:00,80.0,32.6,29.93,SE,124,11.0,0.0,18,0.00,,,0.00,318,WeatherHawk,2013-04-30 23:25:00,
2013-04-30 18:30:00,80.3,34.3,29.93,SE,143,7.0,0.0,19,0.00,,,0.00,310,WeatherHawk,2013-04-30 23:30:00,
2013-04-30 18:35:00,80.4,34.4,29.93,SE,143,7.0,0.0,19,0.00,,,0.00,288,WeatherHawk,2013-04-30 23:35:00,
2013-04-30 18:40:00,80.8,34.6,29.93,SSE,163,6.0,-999.0,19,0.00,,,0.00,269,WeatherHawk,2013-04-30 23:40:00,
2013-04-30 18:45:00,80.5,35.7,29.94,SE,137,7.0,0.0,20,0.00,,,0.00,250,WeatherHawk,2013-04-30 23:45:00,
2013-04-30 18:51:00,80.6,34.5,29.93,North,11,3.0,0.0,19,0.00,,,0.00,230,WeatherHawk,2013-04-30 23:51:00,
2013-04-30 18:56:00,80.2,36.7,29.94,ESE,119,7.0,0.0,21,0.00,,,0.00,211,WeatherHawk,2013-04-30 23:56:00,
2013-04-30 19:02:00,80.5,36.9,29.94,NNW,339,4.0,0.0,21,0.00,,,0.00,196,WeatherHawk,2013-05-01 00:02:00,
2013-04-30 19:07:00,80.2,36.7,29.95,North,10,5.0,0.0,21,0.00,,,0.00,176,WeatherHawk,2013-05-01 00:07:00,
2013-04-30 19:12:00,79.9,36.4,29.94,SSE,160,5.0,0.0,21,0.00,,,0.00,160,WeatherHawk,2013-05-01 00:12:00,
2013-04-30 19:17:00,79.7,37.4,29.93,SE,127,4.0,0.0,22,0.00,,,0.00,141,WeatherHawk,2013-05-01 00:17:00,
2013-04-30 19:22:00,79.4,37.2,29.93,ESE,117,8.0,0.0,22,0.00,,,0.00,125,WeatherHawk,2013-05-01 00:22:00,
2013-04-30 19:28:00,79.3,37.2,29.94,East,93,5.0,0.0,22,0.00,,,0.00,106,WeatherHawk,2013-05-01 00:28:00,
2013-04-30 19:33:00,79.2,38.2,29.94,SE,128,9.0,0.0,23,0.00,,,0.00,91,WeatherHawk,2013-05-01 00:33:00,
2013-04-30 19:38:00,79.0,38.0,29.94,ESE,111,8.0,0.0,23,0.00,,,0.00,73,WeatherHawk,2013-05-01 00:38:00,
2013-04-30 19:43:00,78.9,39.0,29.94,SSE,156,8.0,0.0,24,0.00,,,0.00,57,WeatherHawk,2013-05-01 00:43:00,
2013-04-30 19:49:00,78.9,39.0,29.94,East,96,7.0,0.0,24,0.00,,,0.00,40,WeatherHawk,2013-05-01 00:49:00,
2013-04-30 19:54:00,78.5,39.7,29.94,ESE,104,3.0,0.0,25,0.00,,,0.00,20,WeatherHawk,2013-05-01 00:54:00,
2013-04-30 19:59:00,78.1,40.4,29.96,NE,42,2.0,0.0,26,0.00,,,0.00,15,WeatherHawk,2013-05-01 00:59:00,
2013-04-30 20:04:00,78.0,40.3,29.94,SSE,150,7.0,0.0,26,0.00,,,0.00,8,WeatherHawk,2013-05-01 01:04:00,
2013-04-30 20:09:00,77.8,41.2,29.95,East,96,5.0,0.0,27,0.00,,,0.00,4,WeatherHawk,2013-05-01 01:09:00,
2013-04-30 20:15:00,77.6,41.0,29.95,ESE,115,6.0,0.0,27,0.00,,,0.00,2,WeatherHawk,2013-05-01 01:15:00,
2013-04-30 20:20:00,77.4,41.7,29.94,ESE,110,3.0,0.0,28,0.00,,,0.00,1,WeatherHawk,2013-05-01 01:20:00,
2013-04-30 20:25:00,77.1,41.5,29.95,ESE,113,4.0,0.0,28,0.00,,,0.00,0,WeatherHawk,2013-05-01 01:25:00,
2013-04-30 20:30:00,76.9,42.2,29.95,South,178,2.0,0.0,29,0.00,,,0.00,0,WeatherHawk,2013-05-01 01:30:00,
2013-04-30 20:35:00,77.2,42.4,29.95,SE,138,5.0,0.0,29,0.00,,,0.00,0,WeatherHawk,2013-05-01 01:35:00,
2013-04-30 20:40:00,76.8,42.1,29.95,East,91,3.0,0.0,29,0.00,,,0.00,1,WeatherHawk,2013-05-01 01:40:00,
2013-04-30 20:45:00,76.6,42.8,29.95,SE,141,2.0,0.0,30,0.00,,,0.00,0,WeatherHawk,2013-05-01 01:45:00,
2013-04-30 20:50:00,76.7,42.9,29.96,ESE,107,5.0,-999.0,30,0.00,,,0.00,0,WeatherHawk,2013-05-01 01:50:00,
2013-04-30 20:55:00,76.9,43.9,29.97,ESE,120,7.0,0.0,31,0.00,,,0.00,1,WeatherHawk,2013-05-01 01:55:00,
2013-04-30 21:00:00,76.4,43.5,29.97,SE,144,6.0,0.0,31,0.00,,,0.00,0,WeatherHawk,2013-05-01 02:00:00,
2013-04-30 21:05:00,76.4,43.5,29.97,SE,144,8.0,-999.0,31,0.00,,,0.00,0,WeatherHawk,2013-05-01 02:05:00,
2013-04-30 21:10:00,76.5,43.6,29.96,ESE,112,9.0,0.0,31,0.00,,,0.00,0,WeatherHawk,2013-05-01 02:10:00,
2013-04-30 21:15:00,76.1,44.1,29.96,SE,126,5.0,-999.0,32,0.00,,,0.00,0,WeatherHawk,2013-05-01 02:15:00,
2013-04-30 21:20:00,75.7,43.8,29.97,East,98,6.0,0.0,32,0.00,,,0.00,0,WeatherHawk,2013-05-01 02:20:00,
2013-04-30 21:25:00,75.8,43.8,29.97,SE,129,5.0,-999.0,32,0.00,,,0.00,1,WeatherHawk,2013-05-01 02:25:00,
2013-04-30 21:30:00,75.9,44.7,29.98,SSE,154,6.0,0.0,33,0.00,,,0.00,1,WeatherHawk,2013-05-01 02:30:00,
2013-04-30 21:35:00,75.3,44.2,29.98,SE,136,3.0,0.0,33,0.00,,,0.00,0,WeatherHawk,2013-05-01 02:35:00,
2013-04-30 21:40:00,75.2,44.1,29.97,ESE,116,5.0,-999.0,33,0.00,,,0.00,0,WeatherHawk,2013-05-01 02:40:00,
2013-04-30 21:45:00,75.1,44.0,29.97,SE,127,5.0,0.0,33,0.00,,,0.00,0,WeatherHawk,2013-05-01 02:45:00,
2013-04-30 21:50:00,75.1,44.8,29.98,ESE,104,6.0,0.0,34,0.00,,,0.00,0,WeatherHawk,2013-05-01 02:50:00,
2013-04-30 21:55:00,75.0,44.7,29.97,SSE,154,7.0,0.0,34,0.00,,,0.00,0,WeatherHawk,2013-05-01 02:55:00,
2013-04-30 22:00:00,74.8,43.8,29.98,SE,132,6.0,-999.0,33,0.00,,,0.00,0,WeatherHawk,2013-05-01 03:00:00,
2013-04-30 22:05:00,74.3,44.1,29.99,ESE,121,5.0,0.0,34,0.00,,,0.00,0,WeatherHawk,2013-05-01 03:05:00,
2013-04-30 22:10:00,74.4,44.1,29.99,SE,131,4.0,0.0,34,0.00,,,0.00,0,WeatherHawk,2013-05-01 03:10:00,
2013-04-30 22:15:00,74.5,44.3,30.00,SSE,155,8.0,0.0,34,0.00,,,0.00,1,WeatherHawk,2013-05-01 03:15:00,
2013-04-30 22:20:00,74.7,44.5,30.00,ESE,102,10.0,0.0,34,0.00,,,0.00,1,WeatherHawk,2013-05-01 03:20:00,
2013-04-30 22:25:00,74.5,44.2,30.00,ESE,120,9.0,0.0,34,0.00,,,0.00,0,WeatherHawk,2013-05-01 03:25:00,
2013-04-30 22:30:00,74.3,44.9,30.00,East,98,8.0,0.0,35,0.00,,,0.00,0,WeatherHawk,2013-05-01 03:30:00,
2013-04-30 22:35:00,74.2,44.8,30.00,SSW,202,11.0,0.0,35,0.00,,,0.00,0,WeatherHawk,2013-05-01 03:35:00,
2013-04-30 22:40:00,74.1,45.4,30.00,ESE,120,8.0,-999.0,36,0.00,,,0.00,0,WeatherHawk,2013-05-01 03:40:00,
2013-04-30 22:45:00,73.9,45.2,30.01,ESE,123,6.0,0.0,36,0.00,,,0.00,0,WeatherHawk,2013-05-01 03:45:00,
2013-04-30 22:50:00,73.9,45.2,30.01,ESE,113,14.0,-999.0,36,0.00,,,0.00,1,WeatherHawk,2013-05-01 03:50:00,
2013-04-30 22:55:00,73.6,45.7,30.02,SSE,161,9.0,0.0,37,0.00,,,0.00,1,WeatherHawk,2013-05-01 03:55:00,
2013-04-30 23:00:00,73.3,45.5,30.01,SE,138,7.0,0.0,37,0.00,,,0.00,0,WeatherHawk,2013-05-01 04:00:00,
2013-04-30 23:01:00,73.4,45.5,30.02,SSE,161,11.0,0.0,37,0.00,,,0.00,1,WeatherHawk,2013-05-01 04:01:00,
2013-04-30 23:02:00,73.3,45.4,30.02,ESE,114,8.0,0.0,37,0.00,,,0.00,0,WeatherHawk,2013-05-01 04:02:00,
2013-04-30 23:03:00,73.2,45.4,30.02,SSE,148,8.0,0.0,37,0.00,,,0.00,0,WeatherHawk,2013-05-01 04:03:00,
2013-04-30 23:08:00,73.0,45.9,30.01,ENE,58,9.0,0.0,38,0.00,,,0.00,0,WeatherHawk,2013-05-01 04:08:00,
2013-04-30 23:10:00,72.8,45.7,30.01,SE,128,4.0,0.0,38,0.00,,,0.00,1,WeatherHawk,2013-05-01 04:10:00,
2013-04-30 23:15:00,72.8,45.7,30.01,ESE,117,8.0,0.0,38,0.00,,,0.00,1,WeatherHawk,2013-05-01 04:15:00,
2013-04-30 23:20:00,72.9,46.4,30.01,SE,131,8.0,-999.0,39,0.00,,,0.00,0,WeatherHawk,2013-05-01 04:20:00,
2013-04-30 23:25:00,72.6,46.9,30.01,SSE,151,7.0,0.0,40,0.00,,,0.00,0,WeatherHawk,2013-05-01 04:25:00,
2013-04-30 23:30:00,72.4,46.7,30.01,SE,142,5.0,-999.0,40,0.00,,,0.00,1,WeatherHawk,2013-05-01 04:30:00,
2013-04-30 23:35:00,72.3,47.2,30.01,South,170,5.0,0.0,41,0.00,,,0.00,0,WeatherHawk,2013-05-01 04:35:00,
2013-04-30 23:40:00,72.1,47.0,30.02,ESE,118,5.0,-999.0,41,0.00,,,0.00,0,WeatherHawk,2013-05-01 04:40:00,
2013-04-30 23:45:00,72.3,47.9,30.02,East,97,8.0,0.0,42,0.00,,,0.00,0,WeatherHawk,2013-05-01 04:45:00,
2013-04-30 23:50:00,71.9,47.6,30.01,East,99,6.0,-999.0,42,0.00,,,0.00,0,WeatherHawk,2013-05-01 04:50:00,
2013-04-30 23:55:00,71.7,48.0,30.02,SSE,156,6.0,0.0,43,0.00,,,0.00,0,WeatherHawk,2013-05-01 04:55:00,